Time;durP1;ratioP1;P1;durP2;ratioP2;P2;SDS_P1;SDS_P2;PMS_P1;PMS_P2;Temp;Humidity;BMP_temperature;BMP_pressure;BME280_temperature;BME280_humidity;BME280_pressure;Samples;Min_cycle;Max_cycle;Signal;HPM_P1;HPM_P2
2022/11/17 00:00:19;;;;;;;26.67;18.20;;;8.70;99.90;;;;;;4921569;28;89854;-32
2022/11/17 00:02:45;;;;;;;34.75;20.45;;;8.70;99.90;;;;;;4920717;28;90308;-31
2022/11/17 00:05:11;;;;;;;23.92;18.90;;;8.60;99.90;;;;;;4921411;28;89276;-31
2022/11/17 00:07:37;;;;;;;36.78;27.83;;;8.60;99.90;;;;;;4921188;28;90587;-31
2022/11/17 00:10:03;;;;;;;30.08;23.38;;;8.60;99.90;;;;;;4921270;28;88702;-32
2022/11/17 00:15:13;;;;;;;21.63;15.90;;;8.60;99.90;;;;;;4921457;28;89548;-31
2022/11/17 00:17:38;;;;;;;27.83;20.05;;;8.70;99.90;;;;;;4921707;28;89977;-31
2022/11/17 00:22:49;;;;;;;27.23;20.73;;;8.60;99.90;;;;;;4921319;28;89990;-32
2022/11/17 00:25:14;;;;;;;24.20;19.27;;;8.60;99.90;;;;;;4921600;28;88834;-32
2022/11/17 00:27:40;;;;;;;20.63;18.00;;;8.70;99.90;;;;;;4920759;28;90335;-33
2022/11/17 00:30:06;;;;;;;34.38;18.17;;;8.70;99.90;;;;;;4920907;28;90760;-33
2022/11/17 00:35:16;;;;;;;24.55;18.20;;;8.70;99.90;;;;;;4921274;28;88857;-32
2022/11/17 00:38:14;;;;;;;27.08;23.30;;;8.70;99.90;;;;;;4920975;28;90072;-32
2022/11/17 00:40:28;;;;;;;23.00;17.83;;;8.60;99.90;;;;;;4919401;28;89784;-33
2022/11/17 00:42:53;;;;;;;26.52;22.73;;;8.70;99.90;;;;;;4921495;28;89737;-31
2022/11/17 00:45:19;;;;;;;18.35;16.05;;;8.80;99.90;;;;;;4920458;28;88889;-30
2022/11/17 00:47:44;;;;;;;24.05;21.33;;;8.70;99.90;;;;;;4920857;28;90317;-33
2022/11/17 00:50:10;;;;;;;25.30;20.13;;;8.70;99.90;;;;;;4920710;28;89738;-31
2022/11/17 00:52:35;;;;;;;24.08;20.00;;;8.70;99.90;;;;;;4920273;28;89927;-33
2022/11/17 00:55:01;;;;;;;24.42;18.48;;;8.70;99.90;;;;;;4920338;28;89111;-31
2022/11/17 00:57:27;;;;;;;27.65;21.27;;;8.60;99.90;;;;;;4919864;28;90263;-32
2022/11/17 00:59:53;;;;;;;23.92;20.95;;;8.60;99.90;;;;;;4920997;28;89913;-32
2022/11/17 01:02:18;;;;;;;21.05;17.23;;;8.70;99.90;;;;;;4920528;28;89910;-31
2022/11/17 01:04:44;;;;;;;25.27;20.77;;;8.60;99.90;;;;;;4920065;28;89600;-33
2022/11/17 01:07:09;;;;;;;25.52;20.67;;;8.70;99.90;;;;;;4920357;28;90359;-32
2022/11/17 01:09:35;;;;;;;22.35;18.60;;;8.70;99.90;;;;;;4919586;28;89754;-32
2022/11/17 01:12:01;;;;;;;22.52;17.23;;;8.70;99.90;;;;;;4920440;28;90222;-31
2022/11/17 01:14:28;;;;;;;19.75;16.02;;;8.70;99.90;;;;;;4920001;28;88732;-30
2022/11/17 01:16:54;;;;;;;15.33;13.53;;;8.80;99.90;;;;;;4920552;28;90136;-32
2022/11/17 01:19:21;;;;;;;25.60;20.35;;;8.70;99.90;;;;;;4919794;28;89817;-31
2022/11/17 01:21:47;;;;;;;19.25;14.75;;;8.70;99.90;;;;;;4919418;28;90427;-32
2022/11/17 01:24:15;;;;;;;22.30;18.80;;;8.70;99.90;;;;;;4920136;28;89036;-31
2022/11/17 01:26:40;;;;;;;25.42;20.00;;;8.70;99.90;;;;;;4919915;28;89370;-32
2022/11/17 01:29:07;;;;;;;22.52;17.23;;;8.60;99.90;;;;;;4920224;28;89438;-31
2022/11/17 01:31:35;;;;;;;20.80;16.05;;;8.70;99.90;;;;;;4919388;28;88874;-32
2022/11/17 01:34:01;;;;;;;21.17;19.00;;;8.70;99.90;;;;;;4920831;28;90066;-31
2022/11/17 01:39:26;;;;;;;22.67;18.23;;;8.70;99.90;;;;;;4920216;28;89825;-31
2022/11/17 01:41:53;;;;;;;24.27;18.25;;;8.70;99.90;;;;;;4919758;28;90006;-32
2022/11/17 01:44:52;;;;;;;26.48;20.77;;;8.70;99.90;;;;;;4919602;28;90035;-34
2022/11/17 01:47:41;;;;;;;26.05;20.05;;;8.70;99.90;;;;;;4919918;28;90371;-32
2022/11/17 01:50:09;;;;;;;17.38;15.32;;;8.60;99.90;;;;;;4920102;28;89877;-32
2022/11/17 01:52:37;;;;;;;;;;;8.80;99.90;;;;;;4919699;28;88465;-31
2022/11/17 01:55:05;;;;;;;24.15;19.88;;;8.70;99.90;;;;;;4921975;28;88899;-32
2022/11/17 01:57:46;;;;;;;19.40;13.88;;;8.60;99.90;;;;;;4920109;28;91402;-31
2022/11/17 02:00:12;;;;;;;20.27;14.80;;;8.60;99.90;;;;;;4920052;28;90589;-32
2022/11/17 02:02:40;;;;;;;19.52;16.67;;;8.60;99.90;;;;;;4919731;28;89790;-32
2022/11/17 02:05:29;;;;;;;25.50;17.38;;;8.60;99.90;;;;;;4919745;28;90082;-32
2022/11/17 02:07:58;;;;;;;22.02;18.27;;;8.70;99.90;;;;;;4893811;28;89915;-33
2022/11/17 02:10:24;;;;;;;20.15;16.77;;;8.60;99.90;;;;;;4918434;28;90390;-34
2022/11/17 02:12:52;;;;;;;17.88;14.70;;;8.70;99.90;;;;;;4919430;28;90594;-33
2022/11/17 02:15:17;;;;;;;20.50;15.87;;;8.70;99.90;;;;;;4920559;28;88517;-32
2022/11/17 02:17:43;;;;;;;17.92;15.85;;;8.70;99.90;;;;;;4919079;28;90359;-31
2022/11/17 02:20:13;;;;;;;21.65;18.33;;;8.70;99.90;;;;;;4919676;28;89759;-32
2022/11/17 02:23:25;;;;;;;29.08;18.77;;;8.70;99.90;;;;;;4919323;28;89572;-33
2022/11/17 02:26:15;;;;;;;20.63;14.57;;;8.60;99.90;;;;;;4919714;28;88650;-31
2022/11/17 02:28:45;;;;;;;23.90;19.40;;;8.60;99.90;;;;;;4920350;28;90103;-32
2022/11/17 02:31:28;;;;;;;19.33;12.63;;;8.60;99.90;;;;;;4919991;28;89955;-31
2022/11/17 02:34:06;;;;;;;23.00;14.98;;;8.60;99.90;;;;;;4919326;28;89978;-33
2022/11/17 02:36:41;;;;;;;17.52;13.75;;;8.60;99.90;;;;;;4918955;28;90289;-32
2022/11/17 02:39:16;;;;;;;22.52;19.90;;;8.60;99.90;;;;;;4919751;28;88351;-32
2022/11/17 02:41:52;;;;;;;19.35;14.40;;;8.50;99.90;;;;;;4918367;28;89932;-31
2022/11/17 02:44:54;;;;;;;24.50;18.63;;;8.60;99.90;;;;;;4919343;28;89725;-31
2022/11/17 02:47:27;;;;;;;25.13;18.30;;;8.60;99.90;;;;;;4913659;28;89147;-31
2022/11/17 02:49:57;;;;;;;22.98;16.75;;;8.60;99.90;;;;;;4919997;28;89736;-30
2022/11/17 02:52:24;;;;;;;21.98;19.55;;;8.50;99.90;;;;;;4919496;28;89612;-33
2022/11/17 02:54:49;;;;;;;21.08;16.02;;;8.50;99.90;;;;;;4918362;28;88687;-30
2022/11/17 02:57:35;;;;;;;19.65;15.32;;;8.50;99.90;;;;;;4919438;28;88953;-33
2022/11/17 03:00:13;;;;;;;22.20;19.83;;;8.50;99.90;;;;;;4919421;28;89631;-31
2022/11/17 03:03:04;;;;;;;18.85;16.92;;;8.40;99.90;;;;;;4919263;28;91251;-31
2022/11/17 03:05:36;;;;;;;21.00;15.82;;;8.40;99.90;;;;;;4922372;28;89601;-32
2022/11/17 03:08:16;;;;;;;16.95;15.05;;;8.40;99.90;;;;;;4922331;28;88019;-31
2022/11/17 03:11:03;;;;;;;18.23;14.57;;;8.40;99.90;;;;;;4921077;28;90291;-31
2022/11/17 03:13:56;;;;;;;19.03;13.40;;;8.50;99.90;;;;;;4921823;28;90152;-30
2022/11/17 03:16:41;;;;;;;19.80;15.65;;;8.30;99.90;;;;;;4922784;28;89893;-30
2022/11/17 03:19:37;;;;;;;17.48;15.65;;;8.40;99.90;;;;;;4922138;28;89089;-33
2022/11/17 03:22:24;;;;;;;22.63;17.60;;;8.30;99.90;;;;;;4921603;28;90137;-32
2022/11/17 03:24:57;;;;;;;22.83;19.10;;;8.30;99.90;;;;;;4920765;28;89702;-30
2022/11/17 03:27:36;;;;;;;23.92;18.52;;;8.30;99.90;;;;;;4922389;28;89497;-31
2022/11/17 03:30:06;;;;;;;22.33;16.58;;;8.30;99.90;;;;;;4921358;28;89629;-31
2022/11/17 03:32:37;;;;;;;17.27;15.48;;;8.20;99.90;;;;;;4921009;28;91424;-31
2022/11/17 03:35:11;;;;;;;19.77;15.88;;;8.20;99.90;;;;;;4908447;28;89769;-31
2022/11/17 03:37:43;;;;;;;17.55;12.43;;;8.20;99.90;;;;;;4921880;28;89545;-32
2022/11/17 03:40:13;;;;;;;18.63;15.20;;;8.30;99.90;;;;;;4921828;28;89382;-31
2022/11/17 03:42:44;;;;;;;21.27;13.10;;;8.30;99.90;;;;;;4921587;28;90389;-30
2022/11/17 03:45:18;;;;;;;22.38;18.30;;;8.30;99.90;;;;;;4900955;28;89856;-31
2022/11/17 03:47:44;;;;;;;20.02;16.10;;;8.20;99.90;;;;;;4902194;28;90056;-32
2022/11/17 03:50:27;;;;;;;18.75;13.18;;;8.20;99.90;;;;;;4902568;28;90235;-31
2022/11/17 03:52:53;;;;;;;18.48;14.63;;;8.20;99.90;;;;;;4903018;28;90656;-30
2022/11/17 03:55:21;;;;;;;20.85;16.27;;;8.10;99.90;;;;;;4901795;28;90768;-31
2022/11/17 03:57:57;;;;;;;19.50;16.48;;;8.20;99.90;;;;;;4901945;28;91895;-31
2022/11/17 04:00:22;;;;;;;16.45;12.85;;;8.10;99.90;;;;;;4902380;28;89049;-31
2022/11/17 04:02:54;;;;;;;13.30;11.90;;;8.20;99.90;;;;;;4901010;28;91103;-32
2022/11/17 04:05:20;;;;;;;17.42;14.77;;;8.10;99.90;;;;;;4902744;28;90273;-33
2022/11/17 04:07:46;;;;;;;20.30;17.80;;;8.00;99.90;;;;;;4901982;28;89964;-32
2022/11/17 04:10:20;;;;;;;20.75;14.98;;;8.10;99.90;;;;;;4901985;28;89998;-33
2022/11/17 04:18:16;;;;;;;15.57;13.40;;;8.00;99.90;;;;;;4902555;28;89929;-30
2022/11/17 04:20:42;;;;;;;17.15;14.98;;;8.10;99.90;;;;;;4901124;28;90304;-32
2022/11/17 04:23:10;;;;;;;17.25;15.02;;;8.10;99.90;;;;;;4901418;28;90376;-33
2022/11/17 04:28:36;;;;;;;15.30;13.73;;;7.90;99.90;;;;;;4902452;28;89897;-35
2022/11/17 04:31:11;;;;;;;18.20;16.35;;;8.00;99.90;;;;;;4902236;28;89559;-31
2022/11/17 04:33:38;;;;;;;21.30;13.75;;;7.90;99.90;;;;;;4888274;28;90115;-30
2022/11/17 04:36:04;;;;;;;19.97;14.53;;;7.90;99.90;;;;;;4901306;28;89807;-32
2022/11/17 04:38:30;;;;;;;18.60;16.52;;;7.90;99.90;;;;;;4902065;28;90082;-30
2022/11/17 04:43:52;;;;;;;15.82;12.57;;;7.80;99.90;;;;;;4888841;28;89829;-32
2022/11/17 04:46:19;;;;;;;16.00;11.70;;;7.80;99.90;;;;;;4901293;28;90719;-33
2022/11/17 04:48:44;;;;;;;15.75;12.98;;;7.80;99.90;;;;;;4900990;28;90433;-31
2022/11/17 04:51:11;;;;;;;13.15;11.85;;;7.70;99.90;;;;;;4902134;28;89110;-34
2022/11/17 04:53:36;;;;;;;20.83;13.57;;;7.80;99.90;;;;;;4901527;28;92396;-31
2022/11/17 04:56:03;;;;;;;16.23;12.50;;;7.70;99.90;;;;;;4901305;28;89448;-31
2022/11/17 04:58:28;;;;;;;11.75;10.55;;;7.70;99.90;;;;;;4901469;28;90198;-33
2022/11/17 05:00:54;;;;;;;16.23;13.35;;;7.70;99.90;;;;;;4901273;28;88983;-31
2022/11/17 05:03:21;;;;;;;20.45;16.85;;;7.70;99.90;;;;;;4901617;28;90166;-33
2022/11/17 05:05:47;;;;;;;15.73;11.38;;;7.70;99.90;;;;;;4901459;28;89197;-31
2022/11/17 05:08:13;;;;;;;17.75;13.75;;;7.60;99.90;;;;;;4901389;28;90227;-34
2022/11/17 05:13:26;;;;;;;15.50;12.32;;;7.60;99.90;;;;;;4901348;28;90686;-32
2022/11/17 05:18:42;;;;;;;16.58;15.00;;;7.50;99.90;;;;;;4901090;28;90774;-33
2022/11/17 05:21:10;;;;;;;13.05;11.73;;;7.50;99.90;;;;;;4900950;28;88461;-33
2022/11/17 05:23:54;;;;;;;20.13;15.43;;;7.50;99.90;;;;;;4900626;28;90219;-33
2022/11/17 05:26:22;;;;;;;13.13;10.15;;;7.60;99.90;;;;;;4899647;28;89673;-32
2022/11/17 05:28:47;;;;;;;18.65;12.18;;;7.50;99.90;;;;;;4900269;28;89491;-32
2022/11/17 05:31:13;;;;;;;16.65;13.18;;;7.50;99.90;;;;;;4901614;28;88817;-33
2022/11/17 05:33:39;;;;;;;16.67;11.85;;;7.50;99.90;;;;;;4900678;28;88980;-31
2022/11/17 05:36:06;;;;;;;14.57;13.02;;;7.50;99.90;;;;;;4900162;28;90288;-33
2022/11/17 05:38:32;;;;;;;14.85;13.20;;;7.40;99.90;;;;;;4901113;28;90414;-33
2022/11/17 05:40:58;;;;;;;12.27;10.20;;;7.30;99.90;;;;;;4901081;28;89392;-31
2022/11/17 05:43:24;;;;;;;13.07;9.73;;;7.30;99.90;;;;;;4899779;28;90182;-33
2022/11/17 05:45:49;;;;;;;15.25;13.35;;;7.50;99.90;;;;;;4901749;28;90158;-30
2022/11/17 05:48:15;;;;;;;13.43;12.13;;;7.40;99.90;;;;;;4900588;28;89415;-31
2022/11/17 05:50:41;;;;;;;15.52;12.80;;;7.40;99.90;;;;;;4900373;28;88856;-32
2022/11/17 05:53:07;;;;;;;15.10;11.20;;;7.40;99.90;;;;;;4900415;28;89254;-34
2022/11/17 05:55:32;;;;;;;13.13;11.43;;;7.30;99.90;;;;;;4900290;28;90467;-32
2022/11/17 05:58:09;;;;;;;16.50;12.60;;;7.40;99.90;;;;;;4901186;28;91024;-31
2022/11/17 06:00:38;;;;;;;14.00;10.88;;;7.40;99.90;;;;;;4899546;28;89221;-32
2022/11/17 06:03:13;;;;;;;12.40;10.85;;;7.30;99.90;;;;;;4900621;28;90955;-31
2022/11/17 06:05:39;;;;;;;13.35;9.82;;;7.30;99.90;;;;;;4900901;28;90509;-32
2022/11/17 06:08:05;;;;;;;10.15;9.13;;;7.30;99.90;;;;;;4899207;28;90076;-33
2022/11/17 06:10:32;;;;;;;12.82;11.40;;;7.30;99.90;;;;;;4900863;28;89539;-33
2022/11/17 06:12:58;;;;;;;15.45;13.93;;;7.30;99.90;;;;;;4900814;28;90447;-31
2022/11/17 06:15:23;;;;;;;9.98;8.32;;;7.30;99.90;;;;;;4900043;28;89625;-33
2022/11/17 06:18:04;;;;;;;15.35;13.90;;;7.30;99.90;;;;;;4901401;28;89862;-33
2022/11/17 06:20:37;;;;;;;12.55;10.43;;;7.30;99.90;;;;;;4900432;28;88571;-32
2022/11/17 06:23:05;;;;;;;14.68;13.18;;;7.20;99.90;;;;;;4901052;28;89264;-31
2022/11/17 06:25:32;;;;;;;13.40;11.75;;;7.20;99.90;;;;;;4899519;28;91039;-33
2022/11/17 06:28:01;;;;;;;13.52;11.32;;;7.20;99.90;;;;;;4900830;28;90058;-33
2022/11/17 06:30:28;;;;;;;13.75;12.27;;;7.20;99.90;;;;;;4900055;28;89140;-33
2022/11/17 06:32:55;;;;;;;13.32;10.32;;;7.20;99.90;;;;;;4900790;28;90593;-31
2022/11/17 06:35:21;;;;;;;11.02;9.93;;;7.20;99.90;;;;;;4899849;28;90066;-31
2022/11/17 06:37:47;;;;;;;10.35;9.18;;;7.20;99.90;;;;;;4900870;28;89030;-31
2022/11/17 06:40:13;;;;;;;10.15;8.93;;;7.20;99.90;;;;;;4905245;28;88269;-31
2022/11/17 06:45:23;;;;;;;12.30;11.02;;;7.30;99.90;;;;;;4892985;28;90024;-32
2022/11/17 06:47:50;;;;;;;12.77;10.93;;;7.20;99.90;;;;;;4903408;28;90004;-30
2022/11/17 06:50:16;;;;;;;12.15;10.80;;;7.20;99.90;;;;;;4902825;28;88372;-31
2022/11/17 06:52:42;;;;;;;11.15;10.05;;;7.20;99.90;;;;;;4903088;28;90142;-32
2022/11/17 06:55:07;;;;;;;11.00;9.90;;;7.20;99.90;;;;;;4903072;28;89615;-34
2022/11/17 06:57:33;;;;;;;13.38;10.23;;;7.20;99.90;;;;;;4903599;28;90723;-32
2022/11/17 06:59:58;;;;;;;13.10;11.90;;;7.30;99.90;;;;;;4903538;28;88183;-31
2022/11/17 07:02:24;;;;;;;11.25;9.15;;;7.30;99.90;;;;;;4902980;28;90003;-31
2022/11/17 07:04:50;;;;;;;11.73;9.10;;;7.20;99.90;;;;;;4904275;28;89619;-31
2022/11/17 07:07:15;;;;;;;10.70;9.57;;;7.20;99.90;;;;;;4903694;28;89332;-32
2022/11/17 07:09:41;;;;;;;10.15;7.90;;;7.20;99.90;;;;;;4903613;28;87653;-32
2022/11/17 07:12:06;;;;;;;10.65;9.63;;;7.30;99.90;;;;;;4902898;28;90322;-31
2022/11/17 07:14:32;;;;;;;11.45;9.65;;;7.30;99.90;;;;;;4903635;28;90821;-33
2022/11/17 07:16:57;;;;;;;10.00;9.00;;;7.30;99.90;;;;;;4903278;28;92219;-31
2022/11/17 07:19:23;;;;;;;9.77;7.47;;;7.30;99.90;;;;;;4903112;28;89325;-34
2022/11/17 07:21:49;;;;;;;7.18;6.15;;;7.30;99.90;;;;;;4903832;28;89616;-32
2022/11/17 07:24:14;;;;;;;11.20;10.07;;;7.20;99.90;;;;;;4902410;28;90106;-32
2022/11/17 07:26:40;;;;;;;7.47;6.53;;;7.30;99.90;;;;;;4902681;28;89665;-33
2022/11/17 07:29:05;;;;;;;7.95;7.15;;;7.20;99.90;;;;;;4903768;28;89408;-32
2022/11/17 07:31:35;;;;;;;7.55;6.70;;;7.20;99.90;;;;;;4903552;28;89184;-32
2022/11/17 07:34:00;;;;;;;9.77;7.10;;;7.30;99.90;;;;;;4903616;28;90064;-34
2022/11/17 07:36:26;;;;;;;8.27;7.47;;;7.30;99.90;;;;;;4902491;28;89483;-33
2022/11/17 07:38:51;;;;;;;9.75;8.18;;;7.30;99.90;;;;;;4908997;28;90240;-33
2022/11/17 07:41:17;;;;;;;8.57;6.25;;;7.30;99.90;;;;;;4903174;28;90085;-33
2022/11/17 07:43:43;;;;;;;7.40;6.38;;;7.30;99.90;;;;;;4902525;28;90276;-33
2022/11/17 07:46:13;;;;;;;7.85;7.05;;;7.30;99.90;;;;;;4903548;28;89747;-31
2022/11/17 07:48:40;;;;;;;11.05;8.25;;;7.30;99.90;;;;;;4903423;28;89649;-31
2022/11/17 07:51:06;;;;;;;8.02;7.15;;;7.30;99.90;;;;;;4902423;28;90411;-34
2022/11/17 07:53:33;;;;;;;10.02;8.90;;;7.20;99.90;;;;;;4902583;28;89790;-35
2022/11/17 07:56:06;;;;;;;7.43;6.15;;;7.20;99.90;;;;;;4903314;28;89520;-32
2022/11/17 07:58:32;;;;;;;9.02;7.78;;;7.30;99.90;;;;;;4902819;28;89746;-31
2022/11/17 08:00:58;;;;;;;8.02;6.82;;;7.30;99.90;;;;;;4903575;28;90192;-35
2022/11/17 08:03:24;;;;;;;9.38;8.25;;;7.20;99.90;;;;;;4902594;28;90164;-35
2022/11/17 08:05:49;;;;;;;9.48;7.60;;;7.30;99.90;;;;;;4902745;28;90145;-33
2022/11/17 08:08:15;;;;;;;8.60;7.88;;;7.30;99.90;;;;;;4903349;28;89030;-32
2022/11/17 08:10:41;;;;;;;10.60;8.70;;;7.30;99.90;;;;;;4902226;28;88994;-33
2022/11/17 08:13:07;;;;;;;12.40;9.05;;;7.30;99.90;;;;;;4903167;28;89431;-32
2022/11/17 08:15:34;;;;;;;11.63;9.63;;;7.20;99.90;;;;;;4902243;28;89028;-33
2022/11/17 08:18:00;;;;;;;10.73;8.80;;;7.30;99.90;;;;;;4902804;28;89048;-33
2022/11/17 08:20:28;;;;;;;10.40;8.43;;;7.30;99.90;;;;;;4903064;28;90537;-34
2022/11/17 08:22:54;;;;;;;11.82;8.70;;;7.30;99.90;;;;;;4902582;28;89376;-32
2022/11/17 08:25:22;;;;;;;11.77;10.57;;;7.30;99.90;;;;;;4902314;28;88741;-32
2022/11/17 08:27:50;;;;;;;9.93;8.98;;;7.20;99.90;;;;;;4901898;28;90096;-32
2022/11/17 08:30:20;;;;;;;9.98;8.95;;;7.20;99.90;;;;;;4903192;28;90298;-34
2022/11/17 08:32:51;;;;;;;8.65;7.75;;;7.30;99.90;;;;;;4902536;28;89365;-33
2022/11/17 08:35:22;;;;;;;11.00;9.90;;;7.30;99.90;;;;;;4903292;28;89931;-35
2022/11/17 08:37:47;;;;;;;12.30;10.82;;;7.20;99.90;;;;;;4902629;28;89252;-33
2022/11/17 08:40:14;;;;;;;12.50;10.20;;;7.20;99.90;;;;;;4902759;28;90566;-31
2022/11/17 08:42:40;;;;;;;10.10;9.10;;;7.30;99.90;;;;;;4901162;28;89260;-33
2022/11/17 08:45:06;;;;;;;9.35;8.35;;;7.30;99.90;;;;;;4903099;28;89132;-35
2022/11/17 08:47:32;;;;;;;11.05;9.95;;;7.20;99.90;;;;;;4902158;28;87809;-33
2022/11/17 08:49:57;;;;;;;10.07;9.07;;;7.20;99.90;;;;;;4900621;28;90304;-31
2022/11/17 08:52:23;;;;;;;12.32;11.23;;;7.20;99.90;;;;;;4902057;28;90835;-33
2022/11/17 08:54:51;;;;;;;9.63;7.68;;;7.20;99.90;;;;;;4901281;28;90521;-32
2022/11/17 08:57:16;;;;;;;11.27;10.17;;;7.20;99.90;;;;;;4901433;28;89131;-34
2022/11/17 08:59:42;;;;;;;8.27;7.40;;;7.20;99.90;;;;;;4901718;28;90324;-31
2022/11/17 09:02:10;;;;;;;7.38;6.72;;;7.20;99.90;;;;;;4901674;28;89637;-32
2022/11/17 09:04:36;;;;;;;9.18;8.25;;;7.20;99.90;;;;;;4901320;28;89383;-33
2022/11/17 09:07:02;;;;;;;9.73;7.50;;;7.20;99.90;;;;;;4901968;28;88629;-35
2022/11/17 09:09:32;;;;;;;10.52;9.43;;;7.20;99.90;;;;;;4901798;28;90982;-34
2022/11/17 09:11:58;;;;;;;9.32;6.18;;;7.20;99.90;;;;;;4937538;23;89731;-33
2022/11/17 09:14:25;;;;;;;9.30;8.40;;;7.20;99.90;;;;;;4921080;28;89884;-35
2022/11/17 09:16:51;;;;;;;8.52;7.07;;;7.20;99.90;;;;;;4921465;28;90345;-31
2022/11/17 09:19:17;;;;;;;8.20;7.40;;;7.20;99.90;;;;;;4921032;28;90713;-34
2022/11/17 09:21:42;;;;;;;5.78;5.10;;;7.20;99.90;;;;;;4920721;28;90954;-31
2022/11/17 09:24:08;;;;;;;7.10;6.47;;;7.20;99.90;;;;;;4921596;28;88318;-32
2022/11/17 09:26:34;;;;;;;8.45;7.53;;;7.20;99.90;;;;;;4921149;28;89929;-35
2022/11/17 09:29:03;;;;;;;10.10;6.55;;;7.20;99.90;;;;;;4921375;28;90208;-32
2022/11/17 09:31:28;;;;;;;;;;;7.30;99.90;;;;;;4920868;28;89955;-31
2022/11/17 09:33:54;;;;;;;15.43;5.15;;;7.30;99.90;;;;;;4922488;28;89098;-32
2022/11/17 09:36:20;;;;;;;7.78;6.15;;;7.20;99.90;;;;;;4921063;28;87891;-32
2022/11/17 09:38:46;;;;;;;7.57;6.82;;;7.30;99.90;;;;;;4916957;28;91306;-34
2022/11/17 09:41:14;;;;;;;7.47;6.47;;;7.40;99.90;;;;;;4917564;28;90657;-32
2022/11/17 09:43:47;;;;;;;8.10;7.25;;;7.30;99.90;;;;;;4918524;28;90368;-32
2022/11/17 09:46:21;;;;;;;7.85;5.97;;;7.30;99.90;;;;;;4918048;28;89304;-33
2022/11/17 09:49:06;;;;;;;7.53;6.72;;;7.30;99.90;;;;;;4918593;28;90244;-32
2022/11/17 09:51:35;;;;;;;11.52;7.50;;;7.30;99.90;;;;;;4915848;28;89624;-35
2022/11/17 09:54:04;;;;;;;;;;;7.20;99.90;;;;;;4905189;28;89672;-32
2022/11/17 09:56:30;;;;;;;7.43;5.18;;;7.20;99.90;;;;;;4918639;28;88694;-34
2022/11/17 09:59:03;;;;;;;7.82;7.13;;;7.30;99.90;;;;;;4918053;28;90569;-32
2022/11/17 10:01:29;;;;;;;7.70;6.93;;;7.20;99.90;;;;;;4917677;28;89361;-33
2022/11/17 10:03:57;;;;;;;7.72;7.07;;;7.20;99.90;;;;;;4916615;28;89398;-33
2022/11/17 10:06:29;;;;;;;6.50;5.95;;;7.20;99.90;;;;;;4917557;28;88700;-38
2022/11/17 10:09:32;;;;;;;7.10;6.32;;;7.20;99.90;;;;;;4917692;28;89329;-34
2022/11/17 10:12:16;;;;;;;9.35;8.27;;;7.30;99.90;;;;;;4909969;28;89759;-32
2022/11/17 10:14:43;;;;;;;6.05;5.45;;;7.30;99.90;;;;;;4918154;28;89724;-35
2022/11/17 10:17:09;;;;;;;8.60;6.97;;;7.30;99.90;;;;;;4917710;28;88810;-32
2022/11/17 10:19:37;;;;;;;6.57;5.97;;;7.40;99.90;;;;;;4916944;28;90060;-31
2022/11/17 10:22:02;;;;;;;8.83;7.57;;;7.30;99.90;;;;;;4917752;28;89564;-32
2022/11/17 10:24:49;;;;;;;6.13;5.60;;;7.20;99.90;;;;;;4918276;28;89420;-31
2022/11/17 10:27:24;;;;;;;7.57;6.88;;;7.20;99.90;;;;;;4917989;28;88270;-30
2022/11/17 10:30:14;;;;;;;7.00;6.28;;;7.30;99.90;;;;;;4917350;28;90409;-31
2022/11/17 10:32:48;;;;;;;7.22;6.13;;;7.30;99.90;;;;;;4916369;28;91047;-32
2022/11/17 10:35:20;;;;;;;8.32;7.00;;;7.30;99.90;;;;;;4906876;28;90023;-34
2022/11/17 10:38:07;;;;;;;6.60;5.97;;;7.30;99.90;;;;;;4917925;28;90711;-32
2022/11/17 10:40:47;;;;;;;8.35;7.25;;;7.30;99.90;;;;;;4908506;28;90244;-34
2022/11/17 10:43:14;;;;;;;6.75;6.13;;;7.30;99.90;;;;;;4916256;28;89169;-31
2022/11/17 10:46:12;;;;;;;6.45;5.75;;;7.20;99.90;;;;;;4916931;28;90027;-32
2022/11/17 10:48:39;;;;;;;5.30;4.60;;;7.30;99.90;;;;;;4915864;28;88851;-31
2022/11/17 10:51:22;;;;;;;7.22;6.53;;;7.40;99.90;;;;;;4914842;28;90199;-33
2022/11/17 10:54:14;;;;;;;6.10;5.50;;;7.40;99.90;;;;;;4916666;28;89584;-33
2022/11/17 10:56:44;;;;;;;5.53;5.03;;;7.30;99.90;;;;;;4914775;28;89640;-32
2022/11/17 10:59:34;;;;;;;9.88;7.00;;;7.40;99.90;;;;;;4917176;28;88938;-31
2022/11/17 11:02:28;;;;;;;7.05;6.32;;;7.40;99.90;;;;;;4912090;28;91053;-33
2022/11/17 11:05:04;;;;;;;6.50;5.80;;;7.30;99.90;;;;;;4916952;28;89811;-34
2022/11/17 11:07:30;;;;;;;6.65;6.05;;;7.30;99.90;;;;;;4916384;28;89023;-32
2022/11/17 11:10:13;;;;;;;6.00;5.40;;;7.40;99.90;;;;;;4917322;28;88320;-32
2022/11/17 11:12:42;;;;;;;6.15;4.90;;;7.50;99.90;;;;;;4916121;28;90080;-34
2022/11/17 11:15:17;;;;;;;5.95;5.30;;;7.50;99.90;;;;;;4916533;28;90219;-32
2022/11/17 11:17:43;;;;;;;6.47;5.93;;;7.60;99.90;;;;;;4916245;28;89179;-31
2022/11/17 11:20:17;;;;;;;7.25;6.07;;;7.50;99.90;;;;;;4917466;28;88189;-33
2022/11/17 11:22:45;;;;;;;6.60;5.93;;;7.50;99.90;;;;;;4915545;28;90125;-33
2022/11/17 11:25:13;;;;;;;5.45;4.95;;;7.50;99.90;;;;;;4917361;28;90685;-32
2022/11/17 11:27:54;;;;;;;6.65;6.13;;;7.60;99.90;;;;;;4920080;28;90459;-32
2022/11/17 11:30:19;;;;;;;7.80;7.03;;;7.60;99.90;;;;;;4919196;28;89339;-32
2022/11/17 11:33:21;;;;;;;7.18;6.68;;;7.50;99.90;;;;;;4920190;28;90639;-31
2022/11/17 11:36:00;;;;;;;8.20;7.50;;;7.50;99.90;;;;;;4919296;28;90240;-32
2022/11/17 11:38:25;;;;;;;;;;;7.40;99.90;;;;;;4919421;28;89476;-33
2022/11/17 11:41:17;;;;;;;6.32;5.72;;;7.50;99.90;;;;;;4921797;28;88265;-32
2022/11/17 11:44:04;;;;;;;6.97;6.32;;;7.50;99.90;;;;;;4916760;28;89652;-32
2022/11/17 11:47:09;;;;;;;8.27;7.45;;;7.50;99.90;;;;;;4919762;28;90251;-32
2022/11/17 11:49:53;;;;;;;7.63;6.78;;;7.40;99.90;;;;;;4919949;28;89474;-32
2022/11/17 11:52:21;;;;;;;6.63;4.65;;;7.50;99.90;;;;;;4919694;28;89069;-34
2022/11/17 11:54:59;;;;;;;5.88;4.32;;;7.70;99.90;;;;;;4919768;28;89418;-32
2022/11/17 11:57:48;;;;;;;6.50;5.90;;;7.70;99.90;;;;;;4919601;28;89580;-32
2022/11/17 12:00:16;;;;;;;7.82;7.13;;;7.80;99.90;;;;;;4920281;28;90044;-35
2022/11/17 12:03:03;;;;;;;8.23;7.43;;;7.80;99.90;;;;;;4920023;28;89479;-35
2022/11/17 12:05:38;;;;;;;8.35;7.50;;;7.90;99.90;;;;;;4919875;28;90176;-34
2022/11/17 12:08:14;;;;;;;7.93;6.55;;;7.90;99.90;;;;;;4919674;28;89404;-32
2022/11/17 12:11:59;;;;;;;6.07;5.50;;;7.90;99.90;;;;;;4920176;28;89511;-33
2022/11/17 12:13:51;;;;;;;6.45;5.80;;;8.00;99.90;;;;;;4919343;28;89644;-33
2022/11/17 12:16:35;;;;;;;7.15;6.53;;;7.90;99.90;;;;;;4919652;28;90256;-34
2022/11/17 12:19:02;;;;;;;6.88;5.68;;;8.00;99.90;;;;;;4919161;28;90799;-31
2022/11/17 12:21:29;;;;;;;6.15;5.65;;;7.90;99.90;;;;;;4919526;28;90652;-33
2022/11/17 12:24:19;;;;;;;7.30;6.60;;;7.90;99.90;;;;;;4920253;28;88871;-31
2022/11/17 12:26:45;;;;;;;6.47;4.90;;;7.90;99.90;;;;;;4908427;28;91173;-32
2022/11/17 12:29:23;;;;;;;8.30;6.90;;;7.90;99.90;;;;;;4919480;28;89681;-35
2022/11/17 12:31:54;;;;;;;6.88;6.30;;;7.90;99.90;;;;;;4918038;28;89319;-33
2022/11/17 12:34:22;;;;;;;5.97;5.40;;;7.90;99.90;;;;;;4918865;28;89802;-34
2022/11/17 12:37:07;;;;;;;;;;;7.90;99.90;;;;;;4918443;28;90266;-34
2022/11/17 12:39:53;;;;;;;5.85;5.10;;;8.00;99.90;;;;;;4919481;28;89468;-33
2022/11/17 12:42:19;;;;;;;6.78;6.03;;;8.00;99.90;;;;;;4909869;28;89727;-34
2022/11/17 12:44:44;;;;;;;6.93;6.22;;;8.10;99.90;;;;;;4919034;28;89838;-35
2022/11/17 12:47:14;;;;;;;6.63;6.03;;;8.10;99.90;;;;;;4918835;28;90518;-31
2022/11/17 12:50:16;;;;;;;8.63;7.00;;;8.20;99.90;;;;;;4918693;28;89481;-32
2022/11/17 12:52:54;;;;;;;8.02;6.88;;;8.20;99.90;;;;;;4910909;28;89472;-32
2022/11/17 12:55:54;;;;;;;7.07;5.38;;;8.20;99.90;;;;;;4919272;28;89746;-33
2022/11/17 12:58:35;;;;;;;6.15;5.55;;;8.30;99.90;;;;;;4918821;28;90289;-33
2022/11/17 13:01:30;;;;;;;7.57;6.85;;;8.30;99.90;;;;;;4911070;28;89706;-35
2022/11/17 13:04:04;;;;;;;6.88;6.28;;;8.30;99.90;;;;;;4916343;28;90983;-31
2022/11/17 13:06:29;;;;;;;7.07;6.45;;;8.30;99.90;;;;;;4917922;28;89040;-33
2022/11/17 13:09:00;;;;;;;7.50;6.80;;;8.30;99.90;;;;;;4918542;28;90308;-33
2022/11/17 13:11:26;;;;;;;6.82;6.13;;;8.40;99.90;;;;;;4917874;28;90641;-35
2022/11/17 13:14:13;;;;;;;8.55;5.80;;;8.40;99.90;;;;;;4918894;28;90325;-32
2022/11/17 13:16:45;;;;;;;6.22;5.43;;;8.40;99.90;;;;;;4918062;28;88411;-34
2022/11/17 13:19:31;;;;;;;6.47;5.85;;;8.30;99.90;;;;;;4918180;28;90755;-33
2022/11/17 13:22:17;;;;;;;6.72;6.05;;;8.30;99.90;;;;;;4917976;28;89214;-32
2022/11/17 13:24:45;;;;;;;5.13;4.63;;;8.20;99.90;;;;;;4918697;28;89236;-33
2022/11/17 13:27:24;;;;;;;6.75;6.05;;;8.40;99.90;;;;;;4918650;28;89528;-31
2022/11/17 13:30:10;;;;;;;8.23;7.35;;;8.30;99.90;;;;;;4918855;28;89770;-32
2022/11/17 13:32:38;;;;;;;10.70;6.82;;;8.20;99.90;;;;;;4917564;28;89711;-30
2022/11/17 13:35:18;;;;;;;8.48;7.57;;;8.20;99.90;;;;;;4918736;28;89093;-31
2022/11/17 13:37:44;;;;;;;7.93;7.32;;;8.20;99.90;;;;;;4917486;28;88963;-33
2022/11/17 13:40:29;;;;;;;7.78;7.10;;;8.20;99.90;;;;;;4918229;28;90386;-33